Time;durP1;ratioP1;P1;durP2;ratioP2;P2;SDS_P1;SDS_P2;PMS_P1;PMS_P2;Temp;Humidity;BMP_temperature;BMP_pressure;BME280_temperature;BME280_humidity;BME280_pressure;Samples;Min_cycle;Max_cycle;Signal;HPM_P1;HPM_P2
2022/03/04 00:01:38;;;;;;;3.20;3.10;;;16.70;62.90;;;;;;5070945;28;43976;-74
2022/03/04 00:04:09;;;;;;;3.27;3.17;;;16.70;63.10;;;;;;5037970;28;43896;-74
2022/03/04 00:06:39;;;;;;;3.30;3.20;;;16.80;63.10;;;;;;5071574;28;43951;-75
2022/03/04 00:09:07;;;;;;;3.10;3.00;;;16.90;62.70;;;;;;5054152;28;45823;-73
2022/03/04 00:11:35;;;;;;;3.13;3.03;;;17.10;62.30;;;;;;5037753;28;43950;-73
2022/03/04 00:14:03;;;;;;;2.97;2.97;;;17.30;61.80;;;;;;5037715;28;43854;-73
2022/03/04 00:16:32;;;;;;;3.13;3.03;;;17.40;61.40;;;;;;5054374;28;44125;-73
2022/03/04 00:19:07;;;;;;;3.47;3.27;;;17.40;61.10;;;;;;5070619;28;43988;-73
2022/03/04 00:21:36;;;;;;;2.97;2.87;;;17.30;61.10;;;;;;5039433;28;43933;-73
2022/03/04 00:24:06;;;;;;;3.10;3.00;;;17.20;61.20;;;;;;5037865;28;43964;-73
2022/03/04 00:26:35;;;;;;;3.13;3.03;;;17.10;61.40;;;;;;5070850;28;45748;-73
2022/03/04 00:29:04;;;;;;;3.20;3.10;;;17.10;61.70;;;;;;5070270;28;43945;-74
2022/03/04 00:31:33;;;;;;;3.33;3.23;;;17.00;61.90;;;;;;5070915;28;44083;-74
2022/03/04 00:34:02;;;;;;;3.20;3.10;;;16.90;62.10;;;;;;5037461;28;43854;-74
2022/03/04 00:36:30;;;;;;;3.57;3.10;;;16.90;62.30;;;;;;5070416;28;44222;-74
2022/03/04 00:38:59;;;;;;;3.50;3.40;;;16.80;62.40;;;;;;5070462;28;43845;-74
2022/03/04 00:41:29;;;;;;;3.17;3.07;;;16.80;62.50;;;;;;5053131;28;43983;-74
2022/03/04 00:43:57;;;;;;;3.50;3.40;;;16.80;63.00;;;;;;5053912;28;44081;-74
2022/03/04 00:46:26;;;;;;;3.40;3.30;;;16.90;62.90;;;;;;5020297;28;44090;-74
2022/03/04 00:48:54;;;;;;;3.67;3.57;;;17.00;62.40;;;;;;5070081;28;43927;-74
2022/03/04 00:51:23;;;;;;;3.23;3.13;;;17.10;62.00;;;;;;5036693;28;44074;-74
2022/03/04 00:53:51;;;;;;;3.33;3.23;;;17.10;61.90;;;;;;5054245;28;44033;-74
2022/03/04 00:56:19;;;;;;;3.00;2.90;;;17.10;61.80;;;;;;5053241;28;43983;-74
2022/03/04 00:58:49;;;;;;;2.90;2.90;;;17.00;61.90;;;;;;5037111;28;44092;-73
2022/03/04 01:01:18;;;;;;;3.37;3.27;;;17.00;62.20;;;;;;5088178;28;43719;-73
2022/03/04 01:03:46;;;;;;;3.10;3.00;;;16.90;62.40;;;;;;5037165;28;44309;-75
2022/03/04 01:06:15;;;;;;;3.33;3.23;;;16.90;62.50;;;;;;5036045;28;44071;-75
2022/03/04 01:08:44;;;;;;;3.37;3.27;;;16.80;62.60;;;;;;5036538;28;44214;-74
2022/03/04 01:11:13;;;;;;;3.10;3.10;;;16.80;62.70;;;;;;5042930;28;44009;-75
2022/03/04 01:13:42;;;;;;;3.27;3.17;;;16.80;62.80;;;;;;5044483;28;43952;-74
2022/03/04 01:16:12;;;;;;;3.20;3.10;;;16.80;62.90;;;;;;5069533;28;44084;-74
2022/03/04 01:18:41;;;;;;;3.13;3.03;;;16.70;62.90;;;;;;5069375;28;43985;-74
2022/03/04 01:21:09;;;;;;;3.23;3.13;;;16.70;62.90;;;;;;5052873;28;43908;-74
2022/03/04 01:23:38;;;;;;;3.20;3.10;;;16.70;63.20;;;;;;5053395;28;44112;-74
2022/03/04 01:26:07;;;;;;;3.33;3.23;;;16.90;63.10;;;;;;5069032;28;44017;-74
2022/03/04 01:28:36;;;;;;;3.27;3.17;;;17.10;62.60;;;;;;5069476;28;44159;-74
2022/03/04 01:31:04;;;;;;;3.40;3.30;;;17.20;62.00;;;;;;5069446;28;44061;-75
2022/03/04 01:33:34;;;;;;;3.30;3.20;;;17.40;61.50;;;;;;5036695;28;44101;-75
2022/03/04 01:36:04;;;;;;;3.43;3.33;;;17.50;61.00;;;;;;5051928;28;44064;-74
2022/03/04 01:38:32;;;;;;;2.93;2.90;;;17.50;60.90;;;;;;5052676;28;43863;-74
2022/03/04 01:41:01;;;;;;;3.50;3.40;;;17.40;61.00;;;;;;5052865;28;43431;-74
2022/03/04 01:43:29;;;;;;;2.77;2.77;;;17.30;61.10;;;;;;5036526;28;43640;-74
2022/03/04 01:46:01;;;;;;;3.40;3.30;;;17.20;61.30;;;;;;5069579;28;43966;-74
2022/03/04 01:48:29;;;;;;;2.57;2.57;;;17.10;61.60;;;;;;5036018;28;44231;-74
2022/03/04 01:51:00;;;;;;;2.70;2.70;;;17.00;61.80;;;;;;5036188;28;43907;-74
2022/03/04 01:53:28;;;;;;;3.10;3.00;;;16.90;62.10;;;;;;5035795;28;43503;-74
2022/03/04 01:55:57;;;;;;;3.13;3.03;;;16.90;62.10;;;;;;5051862;28;43979;-74
2022/03/04 01:58:25;;;;;;;3.03;2.93;;;16.90;62.30;;;;;;5068147;28;44691;-74
2022/03/04 02:00:54;;;;;;;3.40;3.30;;;16.90;62.60;;;;;;5089552;28;43923;-75
2022/03/04 02:03:23;;;;;;;3.37;3.27;;;16.90;62.80;;;;;;5075863;28;43862;-75
2022/03/04 02:05:52;;;;;;;2.87;2.87;;;17.00;62.30;;;;;;5095095;28;44008;-75
2022/03/04 02:08:23;;;;;;;3.20;3.10;;;17.10;61.90;;;;;;5042369;28;43490;-75
2022/03/04 02:10:51;;;;;;;2.87;2.87;;;17.10;61.70;;;;;;5059608;28;44017;-75
2022/03/04 02:13:20;;;;;;;3.10;3.00;;;17.10;61.50;;;;;;5059835;28;43655;-75
2022/03/04 02:15:49;;;;;;;3.23;3.13;;;17.00;61.70;;;;;;5058753;28;44324;-75
2022/03/04 02:18:18;;;;;;;3.23;3.03;;;17.00;61.90;;;;;;5074514;28;44013;-76
2022/03/04 02:20:47;;;;;;;3.20;3.10;;;16.90;62.00;;;;;;5075871;28;43352;-75
2022/03/04 02:23:17;;;;;;;3.40;3.30;;;16.90;62.20;;;;;;5093051;28;43881;-76
2022/03/04 02:25:47;;;;;;;3.10;3.00;;;16.80;62.40;;;;;;5058286;28;45356;-76
2022/03/04 02:28:16;;;;;;;3.20;3.10;;;16.80;62.50;;;;;;5058744;28;43952;-75
2022/03/04 02:30:44;;;;;;;3.40;3.30;;;16.80;62.60;;;;;;5092371;28;44016;-75
2022/03/04 02:33:12;;;;;;;3.60;3.50;;;16.70;62.50;;;;;;5052237;28;43561;-75
2022/03/04 02:35:41;;;;;;;3.30;3.20;;;16.70;62.60;;;;;;5075845;28;43640;-75
2022/03/04 02:38:10;;;;;;;3.50;3.40;;;16.70;62.70;;;;;;5084862;28;43970;-75
2022/03/04 02:40:39;;;;;;;3.60;3.50;;;16.70;62.90;;;;;;5051595;28;43392;-75
2022/03/04 02:43:08;;;;;;;3.37;3.27;;;16.80;62.90;;;;;;5069934;28;44146;-75
2022/03/04 02:45:37;;;;;;;3.20;3.10;;;17.00;62.50;;;;;;5041790;28;43964;-75
2022/03/04 02:48:06;;;;;;;3.47;3.37;;;17.20;62.00;;;;;;5057865;28;43907;-76
2022/03/04 02:50:36;;;;;;;3.47;3.37;;;17.40;61.50;;;;;;5057444;28;43969;-76
2022/03/04 02:53:05;;;;;;;3.10;3.00;;;17.40;60.90;;;;;;5094209;28;43830;-75
2022/03/04 02:55:35;;;;;;;3.47;3.37;;;17.40;60.90;;;;;;5058970;28;44871;-75
2022/03/04 02:58:05;;;;;;;2.80;2.80;;;17.40;60.80;;;;;;5058151;28;43863;-75
2022/03/04 03:00:34;;;;;;;3.23;3.13;;;17.30;61.00;;;;;;5041682;28;43396;-75
2022/03/04 03:03:02;;;;;;;3.10;3.00;;;17.20;61.30;;;;;;5074596;28;43950;-75
2022/03/04 03:05:31;;;;;;;3.37;3.27;;;17.10;61.50;;;;;;5066722;28;44213;-75
2022/03/04 03:08:00;;;;;;;2.90;2.90;;;17.00;61.60;;;;;;5041061;28;43989;-75
2022/03/04 03:10:28;;;;;;;3.23;3.10;;;17.00;61.90;;;;;;5074285;28;44023;-75
2022/03/04 03:12:57;;;;;;;3.17;3.07;;;16.90;62.00;;;;;;5056806;28;44075;-75
2022/03/04 03:15:27;;;;;;;3.00;2.97;;;16.90;62.20;;;;;;5051815;28;44078;-75
2022/03/04 03:17:57;;;;;;;2.97;2.90;;;16.80;62.20;;;;;;5072530;28;43394;-75
2022/03/04 03:20:26;;;;;;;3.27;3.17;;;16.80;62.60;;;;;;5074175;28;44034;-76
2022/03/04 03:22:54;;;;;;;3.10;3.00;;;16.90;62.50;;;;;;5075467;28;44257;-76
2022/03/04 03:25:23;;;;;;;3.50;3.40;;;17.00;62.00;;;;;;5056817;28;44926;-75
2022/03/04 03:27:53;;;;;;;3.30;3.20;;;17.10;61.60;;;;;;5074369;28;44029;-75
2022/03/04 03:30:22;;;;;;;3.40;3.30;;;17.10;61.50;;;;;;5040840;28;44246;-75
2022/03/04 03:32:52;;;;;;;3.00;2.90;;;17.10;61.50;;;;;;5058560;28;43541;-75
2022/03/04 03:35:21;;;;;;;3.03;2.97;;;17.00;61.70;;;;;;5040103;28;45356;-75
2022/03/04 03:37:49;;;;;;;3.07;2.97;;;16.90;61.80;;;;;;5056608;28;44025;-75
2022/03/04 03:40:18;;;;;;;3.50;3.40;;;16.90;62.00;;;;;;5056998;28;43965;-75
2022/03/04 03:42:47;;;;;;;3.27;3.17;;;16.90;62.20;;;;;;5075210;28;43489;-75
2022/03/04 03:45:16;;;;;;;3.50;3.40;;;16.80;62.30;;;;;;5073045;28;44136;-75
2022/03/04 03:47:46;;;;;;;3.33;3.23;;;16.80;62.40;;;;;;5057456;28;44685;-75
2022/03/04 03:50:16;;;;;;;3.30;3.20;;;16.70;62.30;;;;;;5074665;28;44021;-76
2022/03/04 03:52:45;;;;;;;3.40;3.30;;;16.70;62.50;;;;;;5055385;28;44034;-76
2022/03/04 03:55:14;;;;;;;3.50;3.40;;;16.70;62.50;;;;;;5073103;28;44025;-76
2022/03/04 03:57:43;;;;;;;3.03;3.00;;;16.70;62.60;;;;;;5074855;28;43973;-76
2022/03/04 04:00:12;;;;;;;3.77;3.67;;;16.70;62.80;;;;;;5074471;28;43498;-76
2022/03/04 04:02:41;;;;;;;3.67;3.57;;;16.80;62.40;;;;;;5058414;28;43866;-76
2022/03/04 04:05:13;;;;;;;3.60;3.50;;;17.10;62.10;;;;;;5041713;28;44024;-76
2022/03/04 04:07:47;;;;;;;3.43;3.27;;;17.30;61.50;;;;;;5059870;28;43913;-76
2022/03/04 04:10:16;;;;;;;3.33;3.23;;;17.40;61.00;;;;;;5056836;28;44013;-75
2022/03/04 04:12:45;;;;;;;3.67;3.57;;;17.40;60.70;;;;;;5058799;28;44362;-75
2022/03/04 04:15:15;;;;;;;3.40;3.30;;;17.40;60.60;;;;;;5092837;28;43611;-75
2022/03/04 04:17:44;;;;;;;3.50;3.40;;;17.30;60.70;;;;;;5074816;28;44224;-76
2022/03/04 04:20:13;;;;;;;3.37;3.27;;;17.20;60.90;;;;;;5041953;28;43368;-76
2022/03/04 04:22:42;;;;;;;3.53;3.43;;;17.10;61.20;;;;;;5058968;28;44316;-76
2022/03/04 04:25:12;;;;;;;3.40;3.30;;;17.00;61.40;;;;;;5091844;28;43940;-76
2022/03/04 04:27:41;;;;;;;3.43;3.33;;;16.90;61.60;;;;;;5058074;28;43727;-76
2022/03/04 04:30:12;;;;;;;3.97;3.87;;;16.90;61.90;;;;;;5057475;28;44182;-76
2022/03/04 04:32:40;;;;;;;3.37;3.27;;;16.80;61.90;;;;;;5058419;28;43929;-76
2022/03/04 04:35:10;;;;;;;3.57;3.47;;;16.80;62.10;;;;;;5040279;28;45041;-76
2022/03/04 04:37:39;;;;;;;3.53;3.43;;;16.80;62.60;;;;;;5076827;28;44014;-76
2022/03/04 04:40:09;;;;;;;3.33;3.23;;;16.80;62.60;;;;;;5043616;28;43421;-77
2022/03/04 04:42:42;;;;;;;3.40;3.30;;;17.00;62.10;;;;;;5062898;28;43890;-76
2022/03/04 04:45:11;;;;;;;3.30;3.20;;;17.00;61.60;;;;;;5077515;28;44047;-76
2022/03/04 04:47:39;;;;;;;3.23;3.13;;;17.00;61.40;;;;;;5060830;28;44960;-76
2022/03/04 04:50:10;;;;;;;3.17;3.07;;;17.00;61.50;;;;;;5077231;28;44008;-77
2022/03/04 04:52:39;;;;;;;3.50;3.40;;;16.90;61.80;;;;;;5060676;28;44221;-76
2022/03/04 04:55:10;;;;;;;3.80;3.70;;;16.80;61.90;;;;;;5074478;28;44111;-75
2022/03/04 04:57:41;;;;;;;3.60;3.47;;;16.80;62.20;;;;;;5075022;28;43405;-76
2022/03/04 05:00:11;;;;;;;3.87;3.67;;;16.70;62.30;;;;;;5073424;28;43905;-76
2022/03/04 05:02:40;;;;;;;4.20;4.00;;;16.70;62.50;;;;;;5058198;28;44294;-75
2022/03/04 05:05:10;;;;;;;4.53;4.27;;;16.60;62.50;;;;;;5057099;28;44168;-75
2022/03/04 05:07:38;;;;;;;5.17;4.67;;;16.60;62.80;;;;;;5074384;28;44450;-75
2022/03/04 05:10:10;;;;;;;5.53;4.83;;;16.50;62.80;;;;;;5057239;28;43990;-76
2022/03/04 05:12:39;;;;;;;5.87;4.77;;;16.50;62.90;;;;;;5074155;28;43846;-75
2022/03/04 05:15:09;;;;;;;6.90;5.17;;;16.50;63.10;;;;;;5050655;28;44214;-76
2022/03/04 05:17:38;;;;;;;8.93;5.23;;;16.50;63.30;;;;;;5050485;28;44023;-78
2022/03/04 05:20:07;;;;;;;7.50;5.27;;;16.70;63.10;;;;;;5032847;28;44080;-77
2022/03/04 05:22:36;;;;;;;9.07;6.17;;;16.90;62.60;;;;;;5040134;28;43472;-76
2022/03/04 05:25:06;;;;;;;9.90;6.30;;;17.10;62.00;;;;;;5055343;28;44252;-77
2022/03/04 05:27:35;;;;;;;7.97;6.00;;;17.20;61.50;;;;;;5039661;28;44465;-76
2022/03/04 05:30:06;;;;;;;8.67;6.13;;;17.20;61.20;;;;;;5072998;28;44153;-77
2022/03/04 05:32:34;;;;;;;9.90;6.40;;;17.20;61.20;;;;;;5056218;28;43923;-76
2022/03/04 05:35:04;;;;;;;9.90;6.47;;;17.10;61.30;;;;;;5054466;28;45255;-76
2022/03/04 05:37:40;;;;;;;10.77;7.07;;;16.90;61.60;;;;;;5051283;28;44088;-76
2022/03/04 05:40:10;;;;;;;11.27;7.10;;;16.80;62.00;;;;;;5050747;28;43575;-76
2022/03/04 05:42:39;;;;;;;14.73;7.73;;;16.70;62.20;;;;;;5070685;28;43957;-76
2022/03/04 05:45:10;;;;;;;12.50;7.63;;;16.70;62.60;;;;;;5055337;28;44290;-77
2022/03/04 05:47:39;;;;;;;13.63;7.53;;;16.60;62.70;;;;;;5021327;28;43899;-77
2022/03/04 05:50:09;;;;;;;11.77;7.57;;;16.50;62.80;;;;;;5053916;28;43940;-77
2022/03/04 05:52:38;;;;;;;16.80;7.80;;;16.50;63.00;;;;;;5052581;28;43964;-77
2022/03/04 05:55:09;;;;;;;15.00;8.00;;;16.50;63.50;;;;;;5056003;28;44406;-77
2022/03/04 05:57:38;;;;;;;14.93;7.80;;;16.50;63.30;;;;;;5076122;28;43433;-77
2022/03/04 06:00:11;;;;;;;13.33;8.07;;;16.70;63.00;;;;;;5038856;28;44071;-77
2022/03/04 06:02:39;;;;;;;13.93;7.77;;;16.80;62.40;;;;;;5075836;28;43878;-77
2022/03/04 06:05:10;;;;;;;13.30;7.47;;;17.00;61.90;;;;;;5058422;28;44085;-77
2022/03/04 06:07:38;;;;;;;12.77;7.83;;;17.00;61.50;;;;;;5058316;28;43414;-77
2022/03/04 06:10:08;;;;;;;12.83;7.50;;;17.00;61.60;;;;;;5068520;28;43920;-77
2022/03/04 06:12:37;;;;;;;11.37;7.03;;;16.90;61.80;;;;;;5057209;28;43996;-77
2022/03/04 06:15:11;;;;;;;13.37;7.67;;;16.80;62.20;;;;;;5059370;28;43778;-77
2022/03/04 06:17:40;;;;;;;9.23;7.23;;;16.70;62.40;;;;;;5060159;28;43377;-78
2022/03/04 06:20:11;;;;;;;11.27;7.40;;;16.60;62.70;;;;;;5027931;28;43868;-77
2022/03/04 06:22:40;;;;;;;12.43;7.33;;;16.60;62.90;;;;;;5076852;28;43424;-77
2022/03/04 06:25:10;;;;;;;12.20;7.53;;;16.50;63.10;;;;;;5040390;28;44138;-78
2022/03/04 06:27:39;;;;;;;9.63;6.90;;;16.40;63.20;;;;;;5066187;28;43806;-78
2022/03/04 06:30:11;;;;;;;13.47;7.70;;;16.40;64.00;;;;;;5050091;28;43877;-77
2022/03/04 06:32:39;;;;;;;11.20;7.33;;;16.40;63.50;;;;;;5050501;28;43914;-77
2022/03/04 06:35:09;;;;;;;9.63;6.87;;;16.30;63.60;;;;;;5042460;28;43902;-77
2022/03/04 06:37:38;;;;;;;11.03;7.27;;;16.40;63.50;;;;;;5082941;28;43945;-78
2022/03/04 06:40:08;;;;;;;11.23;7.37;;;16.60;63.20;;;;;;5058804;28;43968;-77
2022/03/04 06:42:37;;;;;;;10.27;6.90;;;16.70;62.60;;;;;;5045174;28;43705;-78
2022/03/04 06:45:10;;;;;;;8.70;6.77;;;16.80;62.10;;;;;;5041649;28;44263;-77
2022/03/04 06:47:40;;;;;;;7.97;6.70;;;16.80;62.00;;;;;;5053630;28;43914;-78
2022/03/04 06:50:11;;;;;;;10.40;7.03;;;16.80;62.20;;;;;;5079537;28;43407;-78
2022/03/04 06:52:40;;;;;;;8.73;6.57;;;16.70;62.40;;;;;;5069600;28;44101;-77
2022/03/04 06:55:11;;;;;;;8.10;6.63;;;16.60;62.70;;;;;;5055961;28;44055;-78
2022/03/04 06:57:39;;;;;;;8.17;6.50;;;16.50;63.00;;;;;;5058375;28;43903;-78
2022/03/04 07:00:10;;;;;;;9.47;6.90;;;16.40;63.00;;;;;;5060903;28;43443;-77
2022/03/04 07:02:41;;;;;;;9.63;6.90;;;16.40;63.20;;;;;;5077240;28;43464;-76
2022/03/04 07:05:11;;;;;;;10.70;7.00;;;16.30;63.40;;;;;;5060796;28;44119;-76
2022/03/04 07:07:39;;;;;;;7.53;6.70;;;16.30;63.50;;;;;;5075207;28;43879;-76
2022/03/04 07:10:08;;;;;;;7.07;6.37;;;16.30;63.50;;;;;;5061079;28;43382;-76
2022/03/04 07:12:37;;;;;;;7.53;6.77;;;16.30;63.70;;;;;;5076612;28;43546;-76
2022/03/04 07:15:09;;;;;;;9.63;7.20;;;16.30;63.90;;;;;;5066520;28;44131;-76
2022/03/04 07:17:37;;;;;;;9.57;6.80;;;16.30;63.70;;;;;;5071634;28;43922;-76
2022/03/04 07:20:11;;;;;;;7.07;6.37;;;16.50;63.30;;;;;;5071122;28;43371;-76
2022/03/04 07:22:43;;;;;;;8.37;6.93;;;16.70;62.70;;;;;;5077984;28;43635;-76
2022/03/04 07:25:13;;;;;;;8.63;6.33;;;16.80;62.20;;;;;;5075236;28;44090;-76
2022/03/04 07:27:42;;;;;;;8.10;6.17;;;16.80;61.80;;;;;;5061838;28;43410;-76
2022/03/04 07:30:13;;;;;;;8.27;6.83;;;16.80;61.90;;;;;;5042386;28;43461;-76
2022/03/04 07:32:41;;;;;;;7.07;6.43;;;16.70;62.00;;;;;;5060090;28;43898;-76
2022/03/04 07:35:12;;;;;;;6.87;6.17;;;16.60;62.40;;;;;;5077365;28;43839;-76
2022/03/04 07:37:42;;;;;;;7.03;6.17;;;16.50;62.60;;;;;;5061434;28;43896;-76
2022/03/04 07:40:13;;;;;;;6.87;6.27;;;16.40;62.80;;;;;;5058615;28;44025;-75
2022/03/04 07:42:42;;;;;;;6.87;6.30;;;16.40;63.10;;;;;;5061168;28;43667;-75
2022/03/04 07:45:11;;;;;;;6.90;6.20;;;16.30;63.30;;;;;;5076774;28;44057;-76
2022/03/04 07:47:42;;;;;;;6.87;6.30;;;16.30;63.40;;;;;;5076334;28;44012;-76
2022/03/04 07:50:13;;;;;;;7.27;6.57;;;16.30;63.60;;;;;;5059532;28;43449;-76
2022/03/04 07:52:41;;;;;;;6.73;6.13;;;16.20;63.50;;;;;;5042056;28;44062;-76
2022/03/04 07:55:12;;;;;;;7.20;6.60;;;16.20;63.70;;;;;;5074927;28;44826;-76
2022/03/04 07:57:42;;;;;;;7.57;6.83;;;16.30;63.60;;;;;;5077247;28;43864;-76
2022/03/04 08:00:12;;;;;;;6.77;6.17;;;16.50;63.00;;;;;;5059432;28;43396;-76
2022/03/04 08:02:41;;;;;;;7.00;6.40;;;16.50;62.70;;;;;;5075895;28;43528;-77
2022/03/04 08:05:12;;;;;;;7.10;6.20;;;16.50;62.80;;;;;;5057637;28;45402;-77
2022/03/04 08:07:43;;;;;;;6.73;6.20;;;16.40;62.90;;;;;;5060148;28;43404;-77
2022/03/04 08:10:11;;;;;;;6.77;6.17;;;16.40;63.10;;;;;;5048279;28;43403;-77
2022/03/04 08:12:40;;;;;;;5.63;5.23;;;16.30;63.20;;;;;;5089337;28;44006;-77
2022/03/04 08:15:11;;;;;;;7.77;6.67;;;16.30;63.40;;;;;;5059794;28;44782;-77
2022/03/04 08:17:40;;;;;;;6.40;5.90;;;16.20;63.50;;;;;;5055984;28;44032;-76
2022/03/04 08:20:11;;;;;;;7.07;6.53;;;16.20;63.60;;;;;;5076332;28;43527;-77
2022/03/04 08:22:41;;;;;;;6.67;6.13;;;16.20;63.70;;;;;;5063301;28;43535;-77
2022/03/04 08:25:11;;;;;;;6.47;5.97;;;16.20;63.80;;;;;;5079832;28;44052;-76
2022/03/04 08:27:40;;;;;;;6.83;6.33;;;16.10;63.80;;;;;;5078655;28;43961;-77
2022/03/04 08:30:11;;;;;;;7.30;6.70;;;16.10;63.80;;;;;;5047803;28;43780;-76
2022/03/04 08:32:39;;;;;;;6.73;6.23;;;16.10;63.90;;;;;;5098210;28;43954;-76
2022/03/04 08:35:10;;;;;;;7.10;6.50;;;16.10;64.10;;;;;;5062626;28;45083;-76
2022/03/04 08:37:39;;;;;;;6.13;5.63;;;16.20;63.90;;;;;;5096227;28;43939;-76
2022/03/04 08:40:10;;;;;;;7.23;6.63;;;16.40;63.50;;;;;;5091095;28;43842;-75
2022/03/04 08:42:40;;;;;;;6.40;6.00;;;16.50;62.90;;;;;;5094218;28;44214;-76
2022/03/04 08:45:11;;;;;;;6.50;6.10;;;16.70;62.30;;;;;;5063774;28;44938;-76
2022/03/04 08:47:46;;;;;;;6.13;5.63;;;16.80;62.00;;;;;;5059142;28;44739;-76
2022/03/04 08:50:14;;;;;;;6.63;6.23;;;16.80;61.80;;;;;;5061558;28;44010;-76
2022/03/04 08:52:46;;;;;;;6.10;5.70;;;16.80;62.00;;;;;;5081144;28;43566;-76
2022/03/04 08:55:15;;;;;;;6.20;5.80;;;16.60;62.10;;;;;;5078962;28;45062;-76
2022/03/04 08:57:44;;;;;;;6.17;5.87;;;16.60;62.40;;;;;;5043881;28;43345;-76
2022/03/04 09:00:14;;;;;;;6.90;6.40;;;16.50;62.50;;;;;;5057669;28;44046;-76
2022/03/04 09:02:42;;;;;;;6.93;6.37;;;16.50;62.70;;;;;;5092864;28;43909;-76
2022/03/04 09:05:11;;;;;;;6.03;5.60;;;16.40;62.80;;;;;;5075837;28;45661;-76
2022/03/04 09:07:40;;;;;;;5.43;5.13;;;16.40;62.90;;;;;;5080057;28;43977;-76
2022/03/04 09:10:11;;;;;;;6.20;5.80;;;16.40;63.00;;;;;;5079584;28;43973;-76
2022/03/04 09:12:39;;;;;;;6.53;6.03;;;16.40;63.10;;;;;;5067671;28;43950;-76
2022/03/04 09:15:08;;;;;;;6.20;5.70;;;16.30;63.20;;;;;;5024749;28;44160;-76
2022/03/04 09:17:37;;;;;;;6.37;5.97;;;16.40;63.20;;;;;;5066680;28;43968;-77
2022/03/04 09:20:06;;;;;;;6.07;5.67;;;16.60;62.80;;;;;;5052648;28;43424;-77
2022/03/04 09:22:35;;;;;;;6.40;6.00;;;16.70;62.20;;;;;;5045269;28;44300;-77
2022/03/04 09:25:04;;;;;;;5.87;5.47;;;16.70;62.10;;;;;;5055483;28;45120;-78
2022/03/04 09:27:34;;;;;;;6.17;5.73;;;16.70;62.00;;;;;;5071842;28;43431;-77
2022/03/04 09:30:04;;;;;;;6.43;5.93;;;16.70;62.20;;;;;;5060638;28;43442;-77
2022/03/04 09:32:35;;;;;;;6.23;5.83;;;16.60;62.20;;;;;;5059881;28;43990;-78
2022/03/04 09:35:04;;;;;;;5.80;5.40;;;16.60;62.40;;;;;;5060518;28;45307;-77
2022/03/04 09:37:34;;;;;;;6.87;6.37;;;16.60;62.50;;;;;;5044717;28;44184;-77
2022/03/04 09:40:03;;;;;;;6.37;5.87;;;16.50;62.50;;;;;;5061237;28;43309;-77
2022/03/04 09:42:34;;;;;;;6.27;5.87;;;16.50;62.60;;;;;;5057480;28;43949;-77
2022/03/04 09:45:07;;;;;;;6.03;5.63;;;16.50;62.60;;;;;;5059972;28;44067;-77
2022/03/04 09:47:36;;;;;;;6.33;5.87;;;16.60;62.80;;;;;;5061885;28;43950;-77
2022/03/04 09:50:08;;;;;;;6.00;5.70;;;16.50;62.70;;;;;;5041474;28;43875;-77
2022/03/04 09:52:38;;;;;;;5.93;5.63;;;16.50;62.70;;;;;;5078782;28;43975;-78
2022/03/04 09:55:08;;;;;;;6.17;5.67;;;16.50;62.90;;;;;;5076315;28;44674;-76
2022/03/04 09:57:40;;;;;;;5.60;5.30;;;16.60;62.80;;;;;;5053196;28;43967;-76
2022/03/04 10:00:11;;;;;;;5.50;5.20;;;16.80;62.40;;;;;;5071316;28;43468;-77
2022/03/04 10:02:40;;;;;;;5.80;5.40;;;17.00;61.90;;;;;;5059379;28;43992;-78
2022/03/04 10:05:10;;;;;;;5.20;5.00;;;17.10;61.50;;;;;;5060829;28;46881;-77
2022/03/04 10:07:42;;;;;;;6.17;5.77;;;17.20;61.30;;;;;;5084602;28;43441;-77
2022/03/04 10:10:12;;;;;;;5.90;5.50;;;17.10;61.00;;;;;;5070492;28;44030;-77
2022/03/04 10:12:55;;;;;;;5.13;4.93;;;17.00;61.10;;;;;;5045362;28;43556;-77
2022/03/04 10:15:25;;;;;;;5.67;5.37;;;16.90;61.40;;;;;;5059878;28;43827;-77
2022/03/04 10:17:58;;;;;;;5.10;4.90;;;16.90;61.70;;;;;;5042624;28;44419;-77
2022/03/04 10:20:49;;;;;;;4.97;4.77;;;16.80;62.00;;;;;;5078400;28;44045;-77
2022/03/04 10:23:19;;;;;;;5.73;5.43;;;16.80;62.20;;;;;;5067818;28;44333;-77
2022/03/04 10:25:49;;;;;;;5.57;5.20;;;16.70;62.30;;;;;;5038751;28;44042;-77
2022/03/04 10:28:19;;;;;;;5.43;5.13;;;16.60;62.50;;;;;;5052251;28;43393;-77
2022/03/04 10:30:48;;;;;;;4.80;4.60;;;16.60;62.60;;;;;;5057685;28;43423;-77
2022/03/04 10:33:18;;;;;;;5.43;5.13;;;16.60;62.80;;;;;;5045821;28;43891;-77
2022/03/04 10:35:50;;;;;;;5.27;4.97;;;16.60;63.10;;;;;;5047012;28;44808;-77
2022/03/04 10:38:22;;;;;;;5.00;4.80;;;16.70;62.90;;;;;;5043903;28;44573;-77
2022/03/04 10:40:51;;;;;;;5.43;5.13;;;16.80;62.40;;;;;;5077742;28;43863;-77
2022/03/04 10:43:24;;;;;;;5.23;4.93;;;17.00;61.90;;;;;;5058873;28;43473;-79
2022/03/04 10:46:01;;;;;;;5.20;4.90;;;17.00;61.70;;;;;;5066692;28;45148;-79
2022/03/04 10:48:29;;;;;;;4.97;4.67;;;16.90;61.80;;;;;;5041541;28;43933;-78
2022/03/04 10:51:03;;;;;;;6.10;5.80;;;16.80;62.00;;;;;;5050814;28;43973;-80
2022/03/04 10:53:32;;;;;;;6.40;6.00;;;16.80;62.70;;;;;;5072837;28;43583;-76
2022/03/04 10:56:04;;;;;;;6.60;6.00;;;16.70;61.90;;;;;;5059943;28;43847;-77
2022/03/04 10:58:38;;;;;;;6.53;6.13;;;16.70;62.10;;;;;;5077162;28;43987;-76
2022/03/04 11:01:09;;;;;;;6.60;6.10;;;16.70;62.20;;;;;;5076935;28;43954;-76
2022/03/04 11:03:41;;;;;;;6.87;6.37;;;16.60;62.20;;;;;;5077317;28;43432;-77
2022/03/04 11:06:12;;;;;;;6.47;6.07;;;16.60;62.30;;;;;;5075523;28;44093;-77
2022/03/04 11:08:42;;;;;;;6.40;6.00;;;16.60;62.40;;;;;;5075573;28;44432;-77
2022/03/04 11:11:11;;;;;;;6.33;6.03;;;16.60;62.50;;;;;;5075360;28;43977;-77
2022/03/04 11:13:42;;;;;;;7.30;6.60;;;16.60;62.50;;;;;;5078133;28;43482;-77
2022/03/04 11:16:10;;;;;;;6.17;5.80;;;16.60;62.70;;;;;;5076079;28;45026;-77
2022/03/04 11:18:40;;;;;;;6.87;6.33;;;16.70;62.40;;;;;;5042703;28;43422;-77
2022/03/04 11:21:09;;;;;;;6.63;6.10;;;16.90;62.00;;;;;;5075546;28;43819;-77
2022/03/04 11:23:38;;;;;;;6.57;6.13;;;17.00;61.50;;;;;;5095136;28;43802;-77
2022/03/04 11:26:09;;;;;;;6.73;6.17;;;17.10;61.40;;;;;;5075765;28;44001;-76
2022/03/04 11:28:43;;;;;;;6.37;5.97;;;17.00;61.30;;;;;;5059498;28;43950;-78
2022/03/04 11:31:12;;;;;;;6.43;6.03;;;17.00;61.60;;;;;;5076565;28;44006;-77
2022/03/04 11:33:46;;;;;;;6.00;5.70;;;17.00;61.90;;;;;;5089110;28;43444;-76
2022/03/04 11:36:15;;;;;;;6.10;5.80;;;16.90;62.10;;;;;;5028029;28;1183460;-76
2022/03/04 11:39:12;;;;;;;6.07;5.67;;;16.80;62.20;;;;;;5067135;28;43881;-77
2022/03/04 11:42:11;;;;;;;5.90;5.60;;;16.80;62.40;;;;;;5074167;28;44263;-77
2022/03/04 11:44:55;;;;;;;6.00;5.47;;;16.70;62.40;;;;;;5072261;28;44069;-77
2022/03/04 11:47:27;;;;;;;5.40;5.20;;;16.70;62.50;;;;;;5073241;28;43914;-77
2022/03/04 11:49:56;;;;;;;5.53;5.33;;;16.70;62.70;;;;;;5065146;28;44036;-78
2022/03/04 11:52:26;;;;;;;5.77;5.47;;;16.70;62.80;;;;;;5044092;28;43534;-77
2022/03/04 11:55:26;;;;;;;5.67;5.37;;;16.70;62.90;;;;;;5077095;28;43900;-78
2022/03/04 11:58:00;;;;;;;5.93;5.57;;;16.70;62.90;;;;;;5075477;28;43913;-77
2022/03/04 12:00:34;;;;;;;5.63;5.33;;;16.80;62.40;;;;;;5076375;28;43967;-78
2022/03/04 12:03:18;;;;;;;5.80;5.43;;;16.90;62.20;;;;;;5093227;28;43421;-78
2022/03/04 12:05:52;;;;;;;5.73;5.43;;;16.90;62.20;;;;;;5058897;28;43572;-78
2022/03/04 12:08:21;;;;;;;5.77;5.37;;;16.90;62.30;;;;;;5048263;28;44895;-78
2022/03/04 12:10:53;;;;;;;5.47;5.17;;;16.80;62.40;;;;;;5042897;28;44515;-77
2022/03/04 12:13:24;;;;;;;5.50;5.20;;;16.80;62.50;;;;;;5058880;28;43416;-77
2022/03/04 12:16:07;;;;;;;5.17;4.97;;;16.80;62.70;;;;;;5078316;28;44314;-78
2022/03/04 12:18:41;;;;;;;5.20;5.00;;;16.80;62.80;;;;;;5094610;28;43907;-77
2022/03/04 12:21:25;;;;;;;4.90;4.70;;;16.70;62.90;;;;;;5055309;28;44185;-78
2022/03/04 12:24:00;;;;;;;5.17;4.87;;;16.70;62.90;;;;;;5060578;28;43367;-78
2022/03/04 12:26:45;;;;;;;5.03;4.83;;;16.70;63.00;;;;;;5077891;28;43630;-78
2022/03/04 12:29:15;;;;;;;5.37;5.17;;;16.70;63.20;;;;;;5043037;28;44079;-78
2022/03/04 12:31:46;;;;;;;5.23;4.93;;;16.70;63.10;;;;;;5058515;28;43418;-78
2022/03/04 12:34:19;;;;;;;5.27;5.00;;;16.70;63.10;;;;;;5061018;28;44132;-78
2022/03/04 12:36:48;;;;;;;4.93;4.70;;;16.70;63.20;;;;;;5077311;28;44298;-76
2022/03/04 12:39:20;;;;;;;5.00;4.80;;;16.80;63.00;;;;;;5076969;28;45651;-78
2022/03/04 12:41:48;;;;;;;5.17;4.87;;;16.90;62.50;;;;;;5062916;28;43968;-77
2022/03/04 12:44:17;;;;;;;4.90;4.67;;;17.10;62.00;;;;;;5064148;28;43985;-77
2022/03/04 12:46:47;;;;;;;4.40;4.20;;;17.20;61.60;;;;;;5069017;28;43486;-76
2022/03/04 12:49:19;;;;;;;4.73;4.43;;;17.30;61.20;;;;;;5047044;28;44096;-77
2022/03/04 12:51:47;;;;;;;4.93;4.73;;;17.20;61.90;;;;;;5069460;28;43358;-77
2022/03/04 12:54:16;;;;;;;4.13;4.03;;;17.10;61.50;;;;;;5053883;28;44046;-77
2022/03/04 12:56:50;;;;;;;4.90;4.60;;;17.10;61.90;;;;;;5037845;28;44346;-77
2022/03/04 12:59:20;;;;;;;5.03;4.83;;;17.00;62.10;;;;;;5052301;28;43929;-76
2022/03/04 13:01:51;;;;;;;4.87;4.67;;;16.90;62.30;;;;;;5073593;28;44015;-77